Thursday, July 31, 2014
03:27 UTC
  |  Log In   |  Register Free
Airport Search:

Seattle-Tacoma International Airport
(KSEA)

Seattle-Tacoma International Airport Diagram
No Airport Diagram Available

FAA data valid effective July 24, 2014 until September 18, 2014 (unless otherwise noted).

 
 
 
 
 
 
 
 
 
 
 
 
 
 

Current Aviation Weather for Seattle-Tacoma International Airport (KSEA)

The most recent METAR observation for KSEA was updated at: 1853 UTC
METAR Summary (Translated METAR)
KSEA
281853Z 29007KT 10SM CLR 24/12 A3012 RMK AO2 SLP204 T02440122 $
KRNT
(4.6 nm NE from KSEA)
281853Z 31007KT 10SM CLR 25/14 A3010 RMK AO2 SLP197 T02500139
TAF Summary (Translated TAF)
KSEA
302100Z 3021/3124 35011KT P6SM SCT250 FM310400 02007KT P6SM SKC FM311000 03004KT P6SM SKC FM312000 32009KT P6SM SKC
KBFI
(4.9 nm NE from KSEA)
301720Z 3018/3118 VRB03KT P6SM SKC FM302000 30008KT P6SM SKC FM310300 VRB02KT P6SM SKC
  Airport Weather Conditions for KSEA

 Current Weather at SEA
79° F
Partly Cloudy
North winds at 11.5 mph
SEA NOAA Radar

Pressure: 30.09 in
Humidity: 34%
Wind: North at 11.5 MPH (10 KT)
Dew Point: 48.0°F
Visibility: 10.00 mi


Airport Weather Forecast for KSEA

Translated METAR and TAF for KSEA
Translated METAR for KSEA (0320 UTC 31 July 2014)
found at http://aviationweather.gov/adds/metars/
 
METAR text: KSEA 310253Z 01010KT 10SM SCT250 26/09 A3009 RMK AO2 SLP195 T02610089 56007
Conditions at: KSEA (SEATTLE/METRO , WA, US) observed 0253 UTC 31 July 2014
Temperature: 26.1°C (79°F)
Dewpoint: 8.9°C (48°F) [RH = 34%]
Pressure (altimeter): 30.09 inches Hg (1019.0 mb)
[Sea-level pressure: 1019.5 mb]
Winds: from the N (10 degrees) at 12 MPH (10 knots; 5.2 m/s)
Visibility: 10 or more miles (16+ km)
Ceiling: at least 12,000 feet AGL
Clouds: scattered clouds at 25000 feet AGL
Weather: no significant weather observed at this time
Translated TAF for KSEA
Forecast for: KSEA (SEATTLE/METRO , WA, US)
TAF Text: KSEA 302320Z 3100/0106 02010KT P6SM SCT250
Forecast period: 0000 to 0400 UTC 31 July 2014
Forecast type: FROM: standard forecast or significant change
Winds: from the NNE (20 degrees) at 12 MPH (10 knots; 5.2 m/s)
Visibility: 6 or more miles (10+ km)
Clouds: scattered clouds at 25000 feet AGL
Weather: no significant weather forecast for this period
TAF Text: FM310400 02007KT P6SM SKC
Forecast period: 0400 to 1000 UTC 31 July 2014
Forecast type: FROM: standard forecast or significant change
Winds: from the NNE (20 degrees) at 8 MPH (7 knots; 3.6 m/s)
Visibility: 6 or more miles (10+ km)
Clouds: clear skies
Weather: no significant weather forecast for this period
TAF Text: FM311000 03004KT P6SM SKC
Forecast period: 1000 to 2000 UTC 31 July 2014
Forecast type: FROM: standard forecast or significant change
Winds: from the NNE (30 degrees) at 5 MPH (4 knots; 2.1 m/s)
Visibility: 6 or more miles (10+ km)
Clouds: clear skies
Weather: no significant weather forecast for this period
TAF Text: FM312000 32009KT P6SM SKC
Forecast period: 2000 UTC 31 July 2014 to 0600 UTC 01 August 2014
Forecast type: FROM: standard forecast or significant change
Winds: from the NW (320 degrees) at 10 MPH (9 knots; 4.7 m/s)
Visibility: 6 or more miles (10+ km)
Clouds: clear skies
Weather: no significant weather forecast for this period

Find All Airport Services Find A Hotel Find A Rental Car Find A Golf Course Find A Restaurant $100 Hamburger



FBO's on the Field
FBO Company Facility Photos Services Transportation Aviation Fuel Prices: Prices include tax
Catering Weather Repair Courtesy Rental Type 100LL JetA JetA+ MOGAS 8087
 
Aircraft Service Intl.

This FBO has not yet been rated
FS:Avfuel
Last Updated: Jul-17
Login to update fuel prices
SS:
Contact Aircraft Service Intl.More FBO Information
 
Add another FBO Facility Photos Catering Weather Repair Courtesy Rental Type 100LL JetA JetA+ MOGAS 8087
Services Transportation Aviation Fuel Prices: Prices include tax


GlobalAir.com Airport Resource Center model-print
model-print
model-print
model-print